createdAt,value
2023-03-30T00:01:32.524Z,18.70
2023-03-30T00:04:02.818Z,18.70
2023-03-30T00:06:31.068Z,18.80
2023-03-30T00:09:00.845Z,18.80
2023-03-30T00:11:33.911Z,18.90
2023-03-30T00:14:02.330Z,18.90
2023-03-30T00:16:30.433Z,18.90
2023-03-30T00:18:58.809Z,18.90
2023-03-30T00:21:28.265Z,18.90
2023-03-30T00:23:56.358Z,19.00
2023-03-30T00:26:24.525Z,18.90
2023-03-30T00:28:52.647Z,19.00
2023-03-30T00:31:20.759Z,18.90
2023-03-30T00:33:50.588Z,18.80
2023-03-30T00:36:22.415Z,18.80
2023-03-30T00:38:53.226Z,18.70
2023-03-30T00:41:21.708Z,18.80
2023-03-30T00:44:01.725Z,18.80
2023-03-30T00:46:31.087Z,18.70
2023-03-30T00:49:04.054Z,18.50
2023-03-30T00:51:35.627Z,18.40
2023-03-30T00:54:10.091Z,18.30
2023-03-30T00:56:38.369Z,18.10
2023-03-30T00:59:07.342Z,17.90
2023-03-30T01:01:39.273Z,17.80
2023-03-30T01:04:09.888Z,17.90
2023-03-30T01:06:40.308Z,17.90
2023-03-30T01:09:10.892Z,17.90
2023-03-30T01:11:39.058Z,17.80
2023-03-30T01:14:09.334Z,17.50
2023-03-30T01:16:45.108Z,17.50
2023-03-30T01:19:51.223Z,17.60
2023-03-30T01:22:52.774Z,17.60
2023-03-30T01:25:46.301Z,17.70
2023-03-30T01:28:41.815Z,17.70
2023-03-30T01:31:33.912Z,17.60
2023-03-30T01:34:38.050Z,17.50
2023-03-30T01:37:31.582Z,17.50
2023-03-30T01:40:09.305Z,17.30
2023-03-30T01:42:46.963Z,17.10
2023-03-30T01:45:20.793Z,16.90
2023-03-30T01:47:54.366Z,16.80
2023-03-30T01:50:27.808Z,16.80
2023-03-30T01:53:01.144Z,16.70
2023-03-30T01:55:36.070Z,16.60
2023-03-30T01:58:09.248Z,16.50
2023-03-30T02:00:41.011Z,16.30
2023-03-30T02:03:14.196Z,16.30
2023-03-30T02:05:44.742Z,16.30
2023-03-30T02:08:17.299Z,16.20
2023-03-30T02:10:48.330Z,16.20
2023-03-30T02:13:17.402Z,16.10
2023-03-30T02:15:48.659Z,16.00
2023-03-30T02:18:18.549Z,16.00
2023-03-30T02:20:49.501Z,16.00
2023-03-30T02:23:20.914Z,15.90
2023-03-30T02:25:50.495Z,15.90
2023-03-30T02:28:18.945Z,15.90
2023-03-30T02:30:48.410Z,15.80
2023-03-30T02:33:25.466Z,15.90
2023-03-30T02:36:17.773Z,16.00
2023-03-30T02:39:14.455Z,16.00
2023-03-30T02:42:27.668Z,16.10
2023-03-30T02:45:06.608Z,16.10
2023-03-30T02:47:41.309Z,16.10
2023-03-30T02:50:17.872Z,16.00
2023-03-30T02:52:56.485Z,16.10
2023-03-30T02:55:34.772Z,16.10
2023-03-30T02:58:41.445Z,16.10
2023-03-30T03:01:18.668Z,16.20
2023-03-30T03:03:59.128Z,16.20
2023-03-30T03:06:33.154Z,16.30
2023-03-30T03:09:01.776Z,16.30
2023-03-30T03:11:32.850Z,16.30
2023-03-30T03:14:01.804Z,16.40
2023-03-30T03:16:33.534Z,16.40
2023-03-30T03:19:11.846Z,16.40
2023-03-30T03:21:41.374Z,16.50
2023-03-30T03:24:13.542Z,16.40
2023-03-30T03:27:02.443Z,16.40
2023-03-30T03:29:36.325Z,16.40
2023-03-30T03:32:06.194Z,16.20
2023-03-30T03:34:44.779Z,16.30
2023-03-30T03:37:14.654Z,16.40
2023-03-30T03:39:44.678Z,16.50
2023-03-30T03:42:16.829Z,16.50
2023-03-30T03:45:04.560Z,16.60
2023-03-30T03:47:34.848Z,16.60
2023-03-30T03:50:06.925Z,16.60
2023-03-30T03:52:35.214Z,16.50
2023-03-30T03:55:03.342Z,16.40
2023-03-30T03:57:32.184Z,16.40
2023-03-30T04:00:00.644Z,16.30
2023-03-30T04:02:29.308Z,16.20
2023-03-30T04:04:59.198Z,16.10
2023-03-30T04:07:27.321Z,16.10
2023-03-30T04:09:55.459Z,16.00
2023-03-30T04:12:44.892Z,15.90
2023-03-30T04:15:25.407Z,16.00
2023-03-30T04:18:09.550Z,16.00
2023-03-30T04:21:03.001Z,16.00
2023-03-30T04:23:50.103Z,16.00
2023-03-30T04:26:20.876Z,16.00
2023-03-30T04:28:57.202Z,16.00
2023-03-30T04:31:42.369Z,15.90
2023-03-30T04:34:22.898Z,16.00
2023-03-30T04:37:08.727Z,16.00
2023-03-30T04:39:57.771Z,15.90
2023-03-30T04:43:02.527Z,15.90
2023-03-30T04:45:50.733Z,15.80
2023-03-30T04:48:38.563Z,15.80
2023-03-30T04:51:25.409Z,15.80
2023-03-30T04:54:18.581Z,15.80
2023-03-30T04:56:52.593Z,15.80
2023-03-30T04:59:38.933Z,15.70
2023-03-30T05:02:27.668Z,15.80
2023-03-30T05:05:11.434Z,15.80
2023-03-30T05:07:58.161Z,15.80
2023-03-30T05:10:46.206Z,15.80
2023-03-30T05:13:41.854Z,15.70
2023-03-30T05:16:30.676Z,15.60
2023-03-30T05:19:24.342Z,15.50
2023-03-30T05:21:55.284Z,15.40
2023-03-30T05:24:34.900Z,15.50
2023-03-30T05:27:22.787Z,15.50
2023-03-30T05:30:16.020Z,15.60
2023-03-30T05:33:02.679Z,15.60
2023-03-30T05:35:53.226Z,15.50
2023-03-30T05:38:45.823Z,15.50
2023-03-30T05:41:34.233Z,15.50
2023-03-30T05:44:12.611Z,15.50
2023-03-30T05:46:59.369Z,15.30
2023-03-30T05:49:41.360Z,15.30
2023-03-30T05:52:22.598Z,15.00
2023-03-30T05:55:05.562Z,14.80
2023-03-30T05:57:54.278Z,14.90
2023-03-30T06:00:33.436Z,15.10
2023-03-30T06:03:09.057Z,15.40
2023-03-30T06:05:39.002Z,15.50
2023-03-30T06:08:08.637Z,15.50
2023-03-30T06:10:37.929Z,15.50
2023-03-30T06:13:09.217Z,15.60
2023-03-30T06:15:52.964Z,15.40
2023-03-30T06:18:23.932Z,15.40
2023-03-30T06:21:08.489Z,15.30
2023-03-30T06:24:09.220Z,15.20
2023-03-30T06:26:41.080Z,14.80
2023-03-30T06:29:09.737Z,14.80
2023-03-30T06:31:40.108Z,14.50
2023-03-30T06:34:40.520Z,14.60
2023-03-30T06:37:09.741Z,14.80
2023-03-30T06:39:38.592Z,14.70
2023-03-30T06:42:07.703Z,14.50
2023-03-30T06:44:50.029Z,14.60
2023-03-30T06:47:22.408Z,14.90
2023-03-30T06:49:51.020Z,15.10
2023-03-30T06:52:39.899Z,15.20
2023-03-30T06:55:09.483Z,15.20
2023-03-30T06:57:38.236Z,15.20
2023-03-30T07:00:13.281Z,15.10
2023-03-30T07:02:43.299Z,15.10
2023-03-30T07:05:43.865Z,15.20
2023-03-30T07:08:27.314Z,15.20
2023-03-30T07:10:57.736Z,15.10
2023-03-30T07:13:31.965Z,15.00
2023-03-30T07:16:00.197Z,15.00
2023-03-30T07:18:29.751Z,14.90
2023-03-30T07:20:59.095Z,14.90
2023-03-30T07:23:31.148Z,14.70
2023-03-30T07:25:59.524Z,14.70
2023-03-30T07:28:40.343Z,14.60
2023-03-30T07:31:11.204Z,14.20
2023-03-30T07:33:42.588Z,14.00
2023-03-30T07:36:15.114Z,14.20
2023-03-30T07:38:43.394Z,14.40
2023-03-30T07:41:13.639Z,14.50
2023-03-30T07:43:42.421Z,14.50
2023-03-30T07:46:12.914Z,14.60
2023-03-30T07:48:46.862Z,14.60
2023-03-30T07:51:16.185Z,14.60
2023-03-30T07:53:56.028Z,14.60
2023-03-30T07:56:33.353Z,14.50
2023-03-30T07:59:02.453Z,14.50
2023-03-30T08:01:35.199Z,14.40
2023-03-30T08:04:11.249Z,14.30
2023-03-30T08:06:39.823Z,14.30
2023-03-30T08:09:08.618Z,14.30
2023-03-30T08:11:36.802Z,14.20
2023-03-30T08:14:05.242Z,14.10
2023-03-30T08:16:33.943Z,14.10
2023-03-30T08:19:02.165Z,14.10
2023-03-30T08:21:31.665Z,14.10
2023-03-30T08:23:59.805Z,14.10
2023-03-30T08:26:28.846Z,14.00
2023-03-30T08:28:56.952Z,14.10
2023-03-30T08:31:25.145Z,14.20
2023-03-30T08:33:53.230Z,14.20
2023-03-30T08:36:21.606Z,14.20
2023-03-30T08:38:51.096Z,14.20
2023-03-30T08:41:51.301Z,14.10
2023-03-30T08:44:29.879Z,14.00
2023-03-30T08:46:58.415Z,13.90
2023-03-30T08:49:27.721Z,13.80
2023-03-30T08:51:56.604Z,13.70
2023-03-30T08:54:34.423Z,13.80
2023-03-30T08:57:11.503Z,13.80
2023-03-30T08:59:47.776Z,13.80
2023-03-30T09:02:20.484Z,13.90
2023-03-30T09:05:02.100Z,13.90
2023-03-30T09:07:33.863Z,14.00
2023-03-30T09:10:04.028Z,14.00
2023-03-30T09:12:39.976Z,14.00
2023-03-30T09:15:16.337Z,14.10
2023-03-30T09:17:48.704Z,14.20
2023-03-30T09:20:23.635Z,14.20
2023-03-30T09:22:53.795Z,14.20
2023-03-30T09:25:31.151Z,14.20
2023-03-30T09:28:07.560Z,14.20
2023-03-30T09:30:40.429Z,14.30
2023-03-30T09:33:18.097Z,14.30
2023-03-30T09:35:58.605Z,14.30
2023-03-30T09:38:27.073Z,14.30
2023-03-30T09:41:07.849Z,14.20
2023-03-30T09:43:41.967Z,14.20
2023-03-30T09:46:10.788Z,14.20
2023-03-30T09:48:43.808Z,14.30
2023-03-30T09:51:24.244Z,14.30
2023-03-30T09:53:54.674Z,14.30
2023-03-30T09:56:29.722Z,14.40
2023-03-30T09:58:57.820Z,14.30
2023-03-30T10:01:38.256Z,14.30
2023-03-30T10:04:09.874Z,14.30
2023-03-30T10:06:50.403Z,14.30
2023-03-30T10:09:22.401Z,14.30
2023-03-30T10:11:53.628Z,14.30
2023-03-30T10:14:31.643Z,14.20
2023-03-30T10:17:00.835Z,14.30
2023-03-30T10:19:29.883Z,14.20
2023-03-30T10:21:59.458Z,14.20
2023-03-30T10:24:31.566Z,14.10
2023-03-30T10:27:11.006Z,14.10
2023-03-30T10:29:39.413Z,14.20
2023-03-30T10:32:12.937Z,14.20
2023-03-30T10:34:43.628Z,14.20
2023-03-30T10:37:15.018Z,14.20
2023-03-30T10:39:47.649Z,14.30
2023-03-30T10:42:21.725Z,14.30
2023-03-30T10:44:53.054Z,14.20
2023-03-30T10:47:34.358Z,14.10
2023-03-30T10:50:10.210Z,14.10
2023-03-30T10:52:58.021Z,14.00
2023-03-30T10:55:35.881Z,14.00
2023-03-30T10:58:14.965Z,14.00
2023-03-30T11:00:58.957Z,14.10
2023-03-30T11:03:29.728Z,14.10
2023-03-30T11:06:03.456Z,14.10
2023-03-30T11:08:36.635Z,14.10
2023-03-30T11:11:08.268Z,14.10
2023-03-30T11:13:41.433Z,14.10
2023-03-30T11:16:15.277Z,14.10
2023-03-30T11:18:52.348Z,14.10
2023-03-30T11:21:25.844Z,14.20
2023-03-30T11:23:56.271Z,14.20
2023-03-30T11:26:30.989Z,14.30
2023-03-30T11:29:09.208Z,14.30
2023-03-30T11:31:48.660Z,14.30
2023-03-30T11:34:25.833Z,14.30
2023-03-30T11:37:00.704Z,14.30
2023-03-30T11:39:33.691Z,14.40
2023-03-30T11:42:10.861Z,14.40
2023-03-30T11:44:40.388Z,14.40
2023-03-30T11:47:22.097Z,14.40
2023-03-30T11:50:12.885Z,14.40
2023-03-30T11:52:50.405Z,14.40
2023-03-30T11:55:42.168Z,14.40
2023-03-30T11:58:22.253Z,14.40
2023-03-30T12:01:02.130Z,14.40
2023-03-30T12:03:39.963Z,14.40
2023-03-30T12:06:28.575Z,14.40
2023-03-30T12:09:16.677Z,14.40
2023-03-30T12:11:50.453Z,14.50
2023-03-30T12:14:41.296Z,14.50
2023-03-30T12:17:25.539Z,14.60
2023-03-30T12:19:58.603Z,14.60
2023-03-30T12:22:32.582Z,14.60
2023-03-30T12:25:06.651Z,14.70
2023-03-30T12:27:37.009Z,14.70
2023-03-30T12:30:24.554Z,14.80
2023-03-30T12:33:04.316Z,14.80
2023-03-30T12:35:57.818Z,14.80
2023-03-30T12:38:27.319Z,14.80
2023-03-30T12:41:16.150Z,14.90
2023-03-30T12:44:06.524Z,14.90
2023-03-30T12:46:42.129Z,14.90
2023-03-30T12:49:24.243Z,15.00
2023-03-30T12:52:09.647Z,15.20
2023-03-30T12:55:17.782Z,15.30
2023-03-30T12:58:08.727Z,15.30
2023-03-30T13:00:53.885Z,15.30
2023-03-30T13:03:38.561Z,15.40
2023-03-30T13:06:23.635Z,15.50
2023-03-30T13:08:57.142Z,15.80
2023-03-30T13:11:25.512Z,16.00
2023-03-30T13:13:56.676Z,16.20
2023-03-30T13:16:48.048Z,16.40
2023-03-30T13:19:25.792Z,16.50
2023-03-30T13:21:59.602Z,16.50
2023-03-30T13:24:37.137Z,16.50
2023-03-30T13:27:26.409Z,16.50
2023-03-30T13:29:57.956Z,16.40
2023-03-30T13:32:48.512Z,16.30
2023-03-30T13:35:54.929Z,16.30
2023-03-30T13:38:53.169Z,16.20
2023-03-30T13:41:36.217Z,16.20
2023-03-30T13:44:19.141Z,16.10
2023-03-30T13:46:52.544Z,16.10
2023-03-30T13:49:34.648Z,16.10
2023-03-30T13:52:06.506Z,16.00
2023-03-30T13:54:39.924Z,16.00
2023-03-30T13:57:11.591Z,16.00
2023-03-30T13:59:44.283Z,16.00
2023-03-30T14:02:17.385Z,16.00
2023-03-30T14:04:46.273Z,16.00
2023-03-30T14:07:17.325Z,16.00
2023-03-30T14:10:04.690Z,16.00
2023-03-30T14:12:35.612Z,16.00
2023-03-30T14:15:18.072Z,16.10
2023-03-30T14:17:50.964Z,16.30
2023-03-30T14:20:30.895Z,16.60
2023-03-30T14:23:00.534Z,16.60
2023-03-30T14:25:33.346Z,16.50
2023-03-30T14:28:04.644Z,16.40
2023-03-30T14:30:34.439Z,16.40
2023-03-30T14:33:10.352Z,16.30
2023-03-30T14:35:43.094Z,16.20
2023-03-30T14:38:17.385Z,16.00
2023-03-30T14:40:47.967Z,15.90
2023-03-30T14:43:20.617Z,15.80
2023-03-30T14:45:50.060Z,15.70
2023-03-30T14:48:24.635Z,15.80
2023-03-30T14:50:53.024Z,15.90
2023-03-30T14:53:25.559Z,16.00
2023-03-30T14:55:58.827Z,16.00
2023-03-30T14:58:29.050Z,16.10
2023-03-30T15:00:58.948Z,16.20
2023-03-30T15:03:33.956Z,16.40
2023-03-30T15:06:03.348Z,16.60
2023-03-30T15:08:33.650Z,16.90
2023-03-30T15:11:08.208Z,17.00
2023-03-30T15:13:38.716Z,17.00
2023-03-30T15:16:08.344Z,17.10
2023-03-30T15:18:38.340Z,17.20
2023-03-30T15:21:10.522Z,17.20
2023-03-30T15:23:42.681Z,17.30
2023-03-30T15:26:13.826Z,17.40
2023-03-30T15:28:46.924Z,17.40
2023-03-30T15:31:16.510Z,17.50
2023-03-30T15:33:46.730Z,17.50
2023-03-30T15:36:18.873Z,17.30
2023-03-30T15:38:49.930Z,17.20
2023-03-30T15:41:22.529Z,17.10
2023-03-30T15:43:56.539Z,17.00
2023-03-30T15:46:25.533Z,16.90
2023-03-30T15:48:55.237Z,16.70
2023-03-30T15:51:27.602Z,16.60
2023-03-30T15:54:00.741Z,16.50
2023-03-30T15:56:34.741Z,16.30
2023-03-30T15:59:03.287Z,16.50
2023-03-30T16:01:43.648Z,16.40
2023-03-30T16:04:15.241Z,16.40
2023-03-30T16:06:45.855Z,16.50
2023-03-30T16:09:16.125Z,16.50
2023-03-30T16:11:46.478Z,16.50
2023-03-30T16:14:17.718Z,16.50
2023-03-30T16:16:45.887Z,16.50
2023-03-30T16:19:16.038Z,16.50
2023-03-30T16:21:45.398Z,16.50
2023-03-30T16:24:13.918Z,16.50
2023-03-30T16:26:42.023Z,16.60
2023-03-30T16:29:21.443Z,16.70
2023-03-30T16:31:49.704Z,16.70
2023-03-30T16:34:18.228Z,16.70
2023-03-30T16:36:48.032Z,16.60
2023-03-30T16:39:19.357Z,16.50
2023-03-30T16:41:48.440Z,16.50
2023-03-30T16:44:18.904Z,16.50
2023-03-30T16:46:48.031Z,16.50
2023-03-30T16:49:19.050Z,16.50
2023-03-30T16:51:47.478Z,16.50
2023-03-30T16:54:29.581Z,16.50
2023-03-30T16:56:59.371Z,16.40
2023-03-30T16:59:30.583Z,16.40
2023-03-30T17:02:00.136Z,16.40
2023-03-30T17:04:28.688Z,16.40
2023-03-30T17:06:56.958Z,16.40
2023-03-30T17:09:25.528Z,16.40
2023-03-30T17:11:53.599Z,16.30
2023-03-30T17:14:23.672Z,16.30
2023-03-30T17:16:53.307Z,16.30
2023-03-30T17:19:21.681Z,16.30
2023-03-30T17:21:50.319Z,16.30
2023-03-30T17:24:18.632Z,16.40
2023-03-30T17:26:47.085Z,16.30
2023-03-30T17:29:15.193Z,16.30
2023-03-30T17:31:45.845Z,16.30
2023-03-30T17:34:15.974Z,16.30
2023-03-30T17:36:44.065Z,16.30
2023-03-30T17:39:14.055Z,16.30
2023-03-30T17:41:42.416Z,16.20
2023-03-30T17:44:10.641Z,16.20
2023-03-30T17:46:39.218Z,16.20
2023-03-30T17:49:18.232Z,16.20
2023-03-30T17:51:47.171Z,16.20
2023-03-30T17:54:15.603Z,16.30
2023-03-30T17:56:43.722Z,16.30
2023-03-30T17:59:12.605Z,16.30
2023-03-30T18:01:41.051Z,16.30
2023-03-30T18:04:09.419Z,16.30
2023-03-30T18:06:39.037Z,16.30
2023-03-30T18:09:14.916Z,16.30
2023-03-30T18:11:43.406Z,16.30
2023-03-30T18:14:11.513Z,16.40
2023-03-30T18:16:43.802Z,16.30
2023-03-30T18:19:12.531Z,16.20
2023-03-30T18:21:42.062Z,16.20
2023-03-30T18:24:10.171Z,16.20
2023-03-30T18:26:40.872Z,16.10
2023-03-30T18:29:19.876Z,16.10
2023-03-30T18:31:48.346Z,16.10
2023-03-30T18:34:17.051Z,16.10
2023-03-30T18:36:46.526Z,16.00
2023-03-30T18:39:19.680Z,15.90
2023-03-30T18:41:47.855Z,15.80
2023-03-30T18:44:16.110Z,15.80
2023-03-30T18:46:45.316Z,15.80
2023-03-30T18:49:15.155Z,15.70
2023-03-30T18:51:43.431Z,15.70
2023-03-30T18:54:12.917Z,15.60
2023-03-30T18:56:41.044Z,15.60
2023-03-30T18:59:10.950Z,15.60
2023-03-30T19:01:40.180Z,15.50
2023-03-30T19:04:08.323Z,15.50
2023-03-30T19:06:36.405Z,15.40
2023-03-30T19:09:04.544Z,15.40
2023-03-30T19:11:34.221Z,15.40
2023-03-30T19:14:03.621Z,15.40
2023-03-30T19:16:31.845Z,15.30
2023-03-30T19:18:59.914Z,15.30
2023-03-30T19:21:28.084Z,15.40
2023-03-30T19:23:56.573Z,15.30
2023-03-30T19:26:24.661Z,15.20
2023-03-30T19:28:54.462Z,15.20
2023-03-30T19:31:22.857Z,15.20
2023-03-30T19:33:51.004Z,15.20
2023-03-30T19:36:19.065Z,15.10
2023-03-30T19:38:49.373Z,15.00
2023-03-30T19:41:17.452Z,15.00
2023-03-30T19:43:45.597Z,14.90
2023-03-30T19:46:15.062Z,14.80
2023-03-30T19:48:43.288Z,14.70
2023-03-30T19:51:12.110Z,14.70
2023-03-30T19:53:40.512Z,14.70
2023-03-30T19:56:11.108Z,14.60
2023-03-30T19:58:39.494Z,14.60
2023-03-30T20:01:08.659Z,14.60
2023-03-30T20:03:38.313Z,14.50
2023-03-30T20:06:11.072Z,14.60
2023-03-30T20:08:39.265Z,14.60
2023-03-30T20:11:08.669Z,14.60
2023-03-30T20:13:37.121Z,14.60
2023-03-30T20:16:06.097Z,14.60
2023-03-30T20:18:35.668Z,14.60
2023-03-30T20:21:05.940Z,14.50
2023-03-30T20:23:34.286Z,14.40
2023-03-30T20:26:04.448Z,14.40
2023-03-30T20:28:33.253Z,14.40
2023-03-30T20:31:01.949Z,14.30
2023-03-30T20:33:33.076Z,14.30
2023-03-30T20:36:01.521Z,14.30
2023-03-30T20:38:31.138Z,14.30
2023-03-30T20:41:02.111Z,14.30
2023-03-30T20:43:33.735Z,14.30
2023-03-30T20:46:14.182Z,14.40
2023-03-30T20:48:42.936Z,14.40
2023-03-30T20:51:13.099Z,14.40
2023-03-30T20:53:43.461Z,14.40
2023-03-30T20:56:12.457Z,14.40
2023-03-30T20:58:40.740Z,14.40
2023-03-30T21:01:15.159Z,14.40
2023-03-30T21:03:45.157Z,14.40
2023-03-30T21:06:18.054Z,14.40
2023-03-30T21:08:48.016Z,14.50
2023-03-30T21:11:16.361Z,14.50
2023-03-30T21:13:44.450Z,14.50
2023-03-30T21:16:12.544Z,14.50
2023-03-30T21:18:40.645Z,14.50
2023-03-30T21:21:09.178Z,14.50
2023-03-30T21:23:39.906Z,14.50
2023-03-30T21:26:10.319Z,14.50
2023-03-30T21:28:38.939Z,14.60
2023-03-30T21:31:09.055Z,14.60
2023-03-30T21:33:38.193Z,14.60
2023-03-30T21:36:07.597Z,14.60
2023-03-30T21:38:36.313Z,14.60
2023-03-30T21:41:06.908Z,14.60
2023-03-30T21:43:37.517Z,14.60
2023-03-30T21:46:07.435Z,14.60
2023-03-30T21:48:38.257Z,14.60
2023-03-30T21:51:08.147Z,14.60
2023-03-30T21:53:37.068Z,14.60
2023-03-30T21:56:05.859Z,14.60
2023-03-30T21:58:34.155Z,14.60
2023-03-30T22:01:11.861Z,14.70
2023-03-30T22:03:41.470Z,14.60
2023-03-30T22:06:11.468Z,14.60
2023-03-30T22:08:39.652Z,14.60
2023-03-30T22:11:09.947Z,14.70
2023-03-30T22:13:38.135Z,14.70
2023-03-30T22:16:12.596Z,14.60
2023-03-30T22:18:41.064Z,14.60
2023-03-30T22:21:13.012Z,14.60
2023-03-30T22:23:41.353Z,14.60
2023-03-30T22:26:09.841Z,14.60
2023-03-30T22:28:37.897Z,14.60
2023-03-30T22:31:09.590Z,14.50
2023-03-30T22:33:37.734Z,14.60
2023-03-30T22:36:07.746Z,14.60
2023-03-30T22:38:36.492Z,14.50
2023-03-30T22:41:07.719Z,14.50
2023-03-30T22:43:36.434Z,14.50
2023-03-30T22:46:05.631Z,14.60
2023-03-30T22:48:36.116Z,14.50
2023-03-30T22:51:05.153Z,14.50
2023-03-30T22:53:33.566Z,14.50
2023-03-30T22:56:01.974Z,14.50
2023-03-30T22:58:30.116Z,14.50
2023-03-30T23:01:02.029Z,14.60
2023-03-30T23:03:30.479Z,14.60
2023-03-30T23:06:01.256Z,14.60
2023-03-30T23:08:29.906Z,14.60
2023-03-30T23:11:04.498Z,14.60
2023-03-30T23:13:33.373Z,14.60
2023-03-30T23:16:01.508Z,14.60
2023-03-30T23:18:29.742Z,14.60
2023-03-30T23:20:59.196Z,14.50
2023-03-30T23:23:27.323Z,14.50
2023-03-30T23:25:55.498Z,14.50
2023-03-30T23:28:23.585Z,14.50
2023-03-30T23:30:51.763Z,14.50
2023-03-30T23:33:19.817Z,14.50
2023-03-30T23:35:50.799Z,14.60
2023-03-30T23:38:21.013Z,14.60
2023-03-30T23:40:49.158Z,14.60
2023-03-30T23:43:17.324Z,14.60
2023-03-30T23:45:45.846Z,14.50
2023-03-30T23:48:13.981Z,14.50
2023-03-30T23:50:42.208Z,14.50
2023-03-30T23:53:10.264Z,14.40
2023-03-30T23:55:41.269Z,14.40
2023-03-30T23:58:09.532Z,14.40
